sensor_id;sensor_type;location;lat;lon;timestamp;pressure;altitude;pressure_sealevel;temperature;humidity
62725;BME280;49026;52.600;4.694;2023-10-08T00:00:46;102284.28;;;17.24;85.84
62725;BME280;49026;52.600;4.694;2023-10-08T00:03:14;102280.88;;;17.20;85.97
62725;BME280;49026;52.600;4.694;2023-10-08T00:05:42;102280.16;;;17.17;86.21
62725;BME280;49026;52.600;4.694;2023-10-08T00:08:08;102278.53;;;17.14;85.97
62725;BME280;49026;52.600;4.694;2023-10-08T00:10:38;102272.50;;;17.11;85.97
62725;BME280;49026;52.600;4.694;2023-10-08T00:13:11;102269.97;;;17.08;86.22
62725;BME280;49026;52.600;4.694;2023-10-08T00:15:38;102256.81;;;17.04;86.16
62725;BME280;49026;52.600;4.694;2023-10-08T00:18:15;102253.50;;;16.99;86.16
62725;BME280;49026;52.600;4.694;2023-10-08T00:20:41;102256.28;;;16.96;86.04
62725;BME280;49026;52.600;4.694;2023-10-08T00:23:20;102255.44;;;16.96;86.45
62725;BME280;49026;52.600;4.694;2023-10-08T00:25:51;102253.91;;;16.90;86.18
62725;BME280;49026;52.600;4.694;2023-10-08T00:28:16;102259.34;;;16.87;86.38
62725;BME280;49026;52.600;4.694;2023-10-08T00:30:43;102262.25;;;16.81;86.35
62725;BME280;49026;52.600;4.694;2023-10-08T00:33:09;102265.03;;;16.78;86.22
62725;BME280;49026;52.600;4.694;2023-10-08T00:35:40;102276.72;;;16.74;86.52
62725;BME280;49026;52.600;4.694;2023-10-08T00:38:07;102277.78;;;16.70;86.61
62725;BME280;49026;52.600;4.694;2023-10-08T00:40:43;102283.16;;;16.68;86.49
62725;BME280;49026;52.600;4.694;2023-10-08T00:43:34;102280.56;;;16.66;86.44
62725;BME280;49026;52.600;4.694;2023-10-08T00:46:04;102290.38;;;16.64;86.39
62725;BME280;49026;52.600;4.694;2023-10-08T00:48:50;102281.63;;;16.62;86.32
62725;BME280;49026;52.600;4.694;2023-10-08T00:51:19;102286.13;;;16.60;86.41
62725;BME280;49026;52.600;4.694;2023-10-08T00:54:06;102288.78;;;16.60;86.28
62725;BME280;49026;52.600;4.694;2023-10-08T00:56:35;102287.13;;;16.58;86.47
62725;BME280;49026;52.600;4.694;2023-10-08T00:59:19;102295.16;;;16.56;86.08
62725;BME280;49026;52.600;4.694;2023-10-08T01:01:49;102300.47;;;16.56;86.37
62725;BME280;49026;52.600;4.694;2023-10-08T01:04:29;102305.72;;;16.58;86.54
62725;BME280;49026;52.600;4.694;2023-10-08T01:06:59;102313.59;;;16.59;86.61
62725;BME280;49026;52.600;4.694;2023-10-08T01:09:29;102336.53;;;16.60;86.84
62725;BME280;49026;52.600;4.694;2023-10-08T01:12:20;102337.31;;;16.64;86.77
62725;BME280;49026;52.600;4.694;2023-10-08T01:14:46;102335.50;;;16.64;86.81
62725;BME280;49026;52.600;4.694;2023-10-08T01:17:14;102338.88;;;16.68;87.25
62725;BME280;49026;52.600;4.694;2023-10-08T01:19:45;102335.31;;;16.69;86.95
62725;BME280;49026;52.600;4.694;2023-10-08T01:22:25;102351.09;;;16.72;87.11
62725;BME280;49026;52.600;4.694;2023-10-08T01:24:54;102353.69;;;16.74;87.26
62725;BME280;49026;52.600;4.694;2023-10-08T01:27:19;102333.34;;;16.74;87.13
62725;BME280;49026;52.600;4.694;2023-10-08T01:29:47;102368.63;;;16.76;87.21
62725;BME280;49026;52.600;4.694;2023-10-08T01:32:18;102379.25;;;16.76;87.34
62725;BME280;49026;52.600;4.694;2023-10-08T01:34:44;102384.56;;;16.76;87.34
62725;BME280;49026;52.600;4.694;2023-10-08T01:37:16;102381.00;;;16.77;87.18
62725;BME280;49026;52.600;4.694;2023-10-08T01:39:45;102378.38;;;16.76;87.57
62725;BME280;49026;52.600;4.694;2023-10-08T01:42:11;102366.03;;;16.75;87.38
62725;BME280;49026;52.600;4.694;2023-10-08T01:44:45;102360.97;;;16.68;87.12
62725;BME280;49026;52.600;4.694;2023-10-08T01:47:19;102349.41;;;16.49;87.14
62725;BME280;49026;52.600;4.694;2023-10-08T01:49:44;102357.19;;;16.32;87.30
62725;BME280;49026;52.600;4.694;2023-10-08T01:52:11;102359.66;;;16.14;87.65
62725;BME280;49026;52.600;4.694;2023-10-08T01:54:47;102373.44;;;16.00;88.15
62725;BME280;49026;52.600;4.694;2023-10-08T01:57:18;102385.38;;;15.88;88.55
62725;BME280;49026;52.600;4.694;2023-10-08T01:59:44;102377.03;;;15.76;88.32
62725;BME280;49026;52.600;4.694;2023-10-08T02:02:09;102391.63;;;15.62;88.79
62725;BME280;49026;52.600;4.694;2023-10-08T02:04:37;102414.00;;;15.53;88.41
62725;BME280;49026;52.600;4.694;2023-10-08T02:07:03;102380.66;;;15.48;88.35
62725;BME280;49026;52.600;4.694;2023-10-08T02:09:31;102371.16;;;15.42;88.70
62725;BME280;49026;52.600;4.694;2023-10-08T02:11:58;102354.56;;;15.37;89.04
62725;BME280;49026;52.600;4.694;2023-10-08T02:14:26;102360.88;;;15.33;89.17
62725;BME280;49026;52.600;4.694;2023-10-08T02:16:57;102356.59;;;15.30;90.80
62725;BME280;49026;52.600;4.694;2023-10-08T02:19:27;102355.75;;;15.28;89.34
62725;BME280;49026;52.600;4.694;2023-10-08T02:21:53;102365.53;;;15.26;89.45
62725;BME280;49026;52.600;4.694;2023-10-08T02:24:20;102363.03;;;15.22;89.48
62725;BME280;49026;52.600;4.694;2023-10-08T02:26:46;102361.50;;;15.16;89.67
62725;BME280;49026;52.600;4.694;2023-10-08T02:29:14;102370.63;;;15.07;89.43
62725;BME280;49026;52.600;4.694;2023-10-08T02:31:40;102365.72;;;14.95;89.10
62725;BME280;49026;52.600;4.694;2023-10-08T02:34:06;102382.00;;;14.84;89.61
62725;BME280;49026;52.600;4.694;2023-10-08T02:36:35;102398.22;;;14.73;89.79
62725;BME280;49026;52.600;4.694;2023-10-08T02:39:06;102403.78;;;14.66;89.61
62725;BME280;49026;52.600;4.694;2023-10-08T02:41:42;102411.94;;;14.56;90.35
62725;BME280;49026;52.600;4.694;2023-10-08T02:44:10;102405.13;;;14.49;92.52
62725;BME280;49026;52.600;4.694;2023-10-08T02:46:45;102404.38;;;14.45;91.27
62725;BME280;49026;52.600;4.694;2023-10-08T02:49:18;102390.44;;;14.40;92.68
62725;BME280;49026;52.600;4.694;2023-10-08T02:51:49;102378.19;;;14.36;92.45
62725;BME280;49026;52.600;4.694;2023-10-08T02:54:18;102381.81;;;14.34;91.14
62725;BME280;49026;52.600;4.694;2023-10-08T02:56:49;102387.16;;;14.32;90.73
62725;BME280;49026;52.600;4.694;2023-10-08T02:59:20;102417.16;;;14.31;90.07
62725;BME280;49026;52.600;4.694;2023-10-08T03:01:47;102429.66;;;14.26;89.88
62725;BME280;49026;52.600;4.694;2023-10-08T03:04:15;102441.31;;;14.19;91.29
62725;BME280;49026;52.600;4.694;2023-10-08T03:06:47;102429.09;;;14.15;90.81
62725;BME280;49026;52.600;4.694;2023-10-08T03:09:17;102425.69;;;14.11;92.07
62725;BME280;49026;52.600;4.694;2023-10-08T03:11:50;102426.69;;;14.07;91.96
62725;BME280;49026;52.600;4.694;2023-10-08T03:14:17;102447.97;;;14.02;91.10
62725;BME280;49026;52.600;4.694;2023-10-08T03:16:52;102449.97;;;13.94;90.91
62725;BME280;49026;52.600;4.694;2023-10-08T03:19:32;102460.81;;;13.85;92.24
62725;BME280;49026;52.600;4.694;2023-10-08T03:22:00;102462.75;;;13.78;92.41
62725;BME280;49026;52.600;4.694;2023-10-08T03:24:29;102451.63;;;13.67;92.50
62725;BME280;49026;52.600;4.694;2023-10-08T03:27:03;102449.31;;;13.53;91.51
62725;BME280;49026;52.600;4.694;2023-10-08T03:29:34;102490.00;;;13.46;91.45
62725;BME280;49026;52.600;4.694;2023-10-08T03:32:06;102523.59;;;13.41;92.43
62725;BME280;49026;52.600;4.694;2023-10-08T03:34:31;102513.06;;;13.39;92.00
62725;BME280;49026;52.600;4.694;2023-10-08T03:37:02;102513.91;;;13.41;90.95
62725;BME280;49026;52.600;4.694;2023-10-08T03:39:31;102506.81;;;13.43;92.96
62725;BME280;49026;52.600;4.694;2023-10-08T03:42:20;102501.50;;;13.45;94.75
62725;BME280;49026;52.600;4.694;2023-10-08T03:44:46;102497.97;;;13.44;94.74
62725;BME280;49026;52.600;4.694;2023-10-08T03:47:16;102474.25;;;13.43;94.58
62725;BME280;49026;52.600;4.694;2023-10-08T03:49:46;102460.22;;;13.41;93.66
62725;BME280;49026;52.600;4.694;2023-10-08T03:52:11;102463.75;;;13.40;94.72
62725;BME280;49026;52.600;4.694;2023-10-08T03:54:38;102463.88;;;13.37;94.13
62725;BME280;49026;52.600;4.694;2023-10-08T03:57:08;102452.50;;;13.33;95.24
62725;BME280;49026;52.600;4.694;2023-10-08T03:59:43;102442.88;;;13.30;95.16
62725;BME280;49026;52.600;4.694;2023-10-08T04:02:08;102450.78;;;13.30;94.98
62725;BME280;49026;52.600;4.694;2023-10-08T04:05:04;102446.47;;;13.26;96.15
62725;BME280;49026;52.600;4.694;2023-10-08T04:07:43;102448.38;;;13.21;97.16
62725;BME280;49026;52.600;4.694;2023-10-08T04:10:23;102451.84;;;13.23;97.24
62725;BME280;49026;52.600;4.694;2023-10-08T04:13:04;102465.09;;;13.22;97.62
62725;BME280;49026;52.600;4.694;2023-10-08T04:15:36;102500.22;;;13.24;97.09
62725;BME280;49026;52.600;4.694;2023-10-08T04:18:08;102514.22;;;13.27;96.35
62725;BME280;49026;52.600;4.694;2023-10-08T04:20:34;102540.53;;;13.30;95.39
62725;BME280;49026;52.600;4.694;2023-10-08T04:23:17;102540.53;;;13.32;95.05
62725;BME280;49026;52.600;4.694;2023-10-08T04:25:48;102534.34;;;13.33;94.50
62725;BME280;49026;52.600;4.694;2023-10-08T04:28:20;102531.72;;;13.31;93.42
62725;BME280;49026;52.600;4.694;2023-10-08T04:30:46;102537.91;;;13.30;92.34
62725;BME280;49026;52.600;4.694;2023-10-08T04:33:13;102514.19;;;13.29;93.61
62725;BME280;49026;52.600;4.694;2023-10-08T04:35:41;102517.72;;;13.28;93.50
62725;BME280;49026;52.600;4.694;2023-10-08T04:38:14;102520.38;;;13.26;93.80
62725;BME280;49026;52.600;4.694;2023-10-08T04:40:42;102511.66;;;13.24;94.88
62725;BME280;49026;52.600;4.694;2023-10-08T04:43:14;102516.09;;;13.22;95.84
62725;BME280;49026;52.600;4.694;2023-10-08T04:45:47;102524.84;;;13.24;94.81
62725;BME280;49026;52.600;4.694;2023-10-08T04:48:14;102520.47;;;13.25;94.15
62725;BME280;49026;52.600;4.694;2023-10-08T04:50:45;102531.00;;;13.25;94.01
62725;BME280;49026;52.600;4.694;2023-10-08T04:53:11;102534.50;;;13.25;93.76
62725;BME280;49026;52.600;4.694;2023-10-08T04:55:36;102516.94;;;13.24;95.01
62725;BME280;49026;52.600;4.694;2023-10-08T04:58:07;102531.00;;;13.25;93.97
62725;BME280;49026;52.600;4.694;2023-10-08T05:00:45;102534.47;;;13.27;92.56
62725;BME280;49026;52.600;4.694;2023-10-08T05:03:20;102542.44;;;13.25;94.30
62725;BME280;49026;52.600;4.694;2023-10-08T05:05:50;102538.88;;;13.26;93.60
62725;BME280;49026;52.600;4.694;2023-10-08T05:08:36;102543.25;;;13.27;93.44
62725;BME280;49026;52.600;4.694;2023-10-08T05:11:23;102545.00;;;13.28;92.76
62725;BME280;49026;52.600;4.694;2023-10-08T05:14:11;102558.19;;;13.28;92.12
62725;BME280;49026;52.600;4.694;2023-10-08T05:16:56;102561.72;;;13.27;92.90
62725;BME280;49026;52.600;4.694;2023-10-08T05:19:41;102552.06;;;13.26;92.64
62725;BME280;49026;52.600;4.694;2023-10-08T05:22:17;102543.28;;;13.26;93.31
62725;BME280;49026;52.600;4.694;2023-10-08T05:24:46;102530.94;;;13.26;93.06
62725;BME280;49026;52.600;4.694;2023-10-08T05:27:52;102533.56;;;13.28;92.32
62725;BME280;49026;52.600;4.694;2023-10-08T05:30:26;102519.50;;;13.27;91.52
62725;BME280;49026;52.600;4.694;2023-10-08T05:33:04;102533.56;;;13.28;91.51
62725;BME280;49026;52.600;4.694;2023-10-08T05:35:43;102541.50;;;13.26;92.55
62725;BME280;49026;52.600;4.694;2023-10-08T05:38:13;102554.78;;;13.25;92.39
62725;BME280;49026;52.600;4.694;2023-10-08T05:40:41;102552.16;;;13.23;92.48
62725;BME280;49026;52.600;4.694;2023-10-08T05:43:40;102564.44;;;13.24;92.33
62725;BME280;49026;52.600;4.694;2023-10-08T05:46:12;102565.38;;;13.23;91.16
62725;BME280;49026;52.600;4.694;2023-10-08T05:48:54;102567.09;;;13.24;91.31
62725;BME280;49026;52.600;4.694;2023-10-08T05:51:29;102573.19;;;13.26;91.35
62725;BME280;49026;52.600;4.694;2023-10-08T05:54:22;102579.38;;;13.25;91.67
62725;BME280;49026;52.600;4.694;2023-10-08T05:59:41;102574.06;;;13.27;91.15
62725;BME280;49026;52.600;4.694;2023-10-08T06:02:22;102575.75;;;13.29;91.31
62725;BME280;49026;52.600;4.694;2023-10-08T06:05:07;102567.81;;;13.32;90.31
62725;BME280;49026;52.600;4.694;2023-10-08T06:07:54;102592.38;;;13.34;90.20
62725;BME280;49026;52.600;4.694;2023-10-08T06:10:24;102575.66;;;13.36;90.72
62725;BME280;49026;52.600;4.694;2023-10-08T06:13:01;102573.88;;;13.36;90.14
62725;BME280;49026;52.600;4.694;2023-10-08T06:15:41;102572.09;;;13.38;90.12
62725;BME280;49026;52.600;4.694;2023-10-08T06:18:17;102570.31;;;13.39;90.11
62725;BME280;49026;52.600;4.694;2023-10-08T06:20:46;102574.66;;;13.40;89.75
62725;BME280;49026;52.600;4.694;2023-10-08T06:23:12;102567.63;;;13.40;89.27
62725;BME280;49026;52.600;4.694;2023-10-08T06:25:43;102556.25;;;13.38;89.27
62725;BME280;49026;52.600;4.694;2023-10-08T06:28:17;102566.63;;;13.44;88.94
62725;BME280;49026;52.600;4.694;2023-10-08T06:30:49;102568.41;;;13.44;88.73
62725;BME280;49026;52.600;4.694;2023-10-08T06:33:19;102572.69;;;13.48;88.71
62725;BME280;49026;52.600;4.694;2023-10-08T06:35:46;102579.72;;;13.49;88.41
62725;BME280;49026;52.600;4.694;2023-10-08T06:38:32;102588.44;;;13.52;88.47
62725;BME280;49026;52.600;4.694;2023-10-08T06:41:02;102596.28;;;13.56;88.31
62725;BME280;49026;52.600;4.694;2023-10-08T06:43:35;102601.50;;;13.59;88.45
62725;BME280;49026;52.600;4.694;2023-10-08T06:46:02;102600.53;;;13.61;88.32
62725;BME280;49026;52.600;4.694;2023-10-08T06:48:28;102589.97;;;13.61;88.09
62725;BME280;49026;52.600;4.694;2023-10-08T06:50:59;102593.47;;;13.63;88.17
62725;BME280;49026;52.600;4.694;2023-10-08T06:53:32;102582.91;;;13.63;88.37
62725;BME280;49026;52.600;4.694;2023-10-08T06:56:01;102570.53;;;13.65;88.42
62725;BME280;49026;52.600;4.694;2023-10-08T06:58:30;102579.22;;;13.69;88.31
62725;BME280;49026;52.600;4.694;2023-10-08T07:00:59;102583.59;;;13.71;88.32
62725;BME280;49026;52.600;4.694;2023-10-08T07:03:30;102586.38;;;13.65;88.68
62725;BME280;49026;52.600;4.694;2023-10-08T07:05:56;102601.38;;;13.65;88.97
62725;BME280;49026;52.600;4.694;2023-10-08T07:08:32;102601.25;;;13.68;89.10
62725;BME280;49026;52.600;4.694;2023-10-08T07:11:00;102587.13;;;13.70;88.96
62725;BME280;49026;52.600;4.694;2023-10-08T07:13:37;102596.78;;;13.71;88.95
62725;BME280;49026;52.600;4.694;2023-10-08T07:16:02;102605.56;;;13.72;89.13
62725;BME280;49026;52.600;4.694;2023-10-08T07:18:29;102634.53;;;13.77;89.23
62725;BME280;49026;52.600;4.694;2023-10-08T07:20:59;102646.56;;;13.88;89.29
62725;BME280;49026;52.600;4.694;2023-10-08T07:23:30;102641.91;;;13.98;88.49
62725;BME280;49026;52.600;4.694;2023-10-08T07:26:02;102646.00;;;14.10;88.98
62725;BME280;49026;52.600;4.694;2023-10-08T07:28:38;102639.59;;;14.19;88.20
62725;BME280;49026;52.600;4.694;2023-10-08T07:31:16;102643.97;;;14.20;87.44
62725;BME280;49026;52.600;4.694;2023-10-08T07:33:43;102639.69;;;14.16;85.91
62725;BME280;49026;52.600;4.694;2023-10-08T07:36:13;102635.19;;;14.19;85.86
62725;BME280;49026;52.600;4.694;2023-10-08T07:38:46;102636.88;;;14.22;85.87
62725;BME280;49026;52.600;4.694;2023-10-08T07:41:13;102635.06;;;14.24;85.36
62725;BME280;49026;52.600;4.694;2023-10-08T07:43:40;102643.81;;;14.26;84.89
62725;BME280;49026;52.600;4.694;2023-10-08T07:46:07;102638.44;;;14.29;84.57
62725;BME280;49026;52.600;4.694;2023-10-08T07:48:35;102653.22;;;14.36;84.78
62725;BME280;49026;52.600;4.694;2023-10-08T07:51:01;102653.06;;;14.42;84.26
62725;BME280;49026;52.600;4.694;2023-10-08T07:53:28;102644.25;;;14.43;83.61
62725;BME280;49026;52.600;4.694;2023-10-08T07:56:04;102642.94;;;14.58;83.93
62725;BME280;49026;52.600;4.694;2023-10-08T07:58:31;102666.56;;;14.66;84.03
62725;BME280;49026;52.600;4.694;2023-10-08T08:01:05;102654.94;;;14.72;83.48
62725;BME280;49026;52.600;4.694;2023-10-08T08:03:37;102652.06;;;14.79;81.14
62725;BME280;49026;52.600;4.694;2023-10-08T08:06:07;102649.88;;;14.94;82.69
62725;BME280;49026;52.600;4.694;2023-10-08T08:08:34;102654.16;;;14.98;81.93
62725;BME280;49026;52.600;4.694;2023-10-08T08:11:02;102667.13;;;15.07;82.78
62725;BME280;49026;52.600;4.694;2023-10-08T08:13:38;102663.59;;;15.07;80.73
62725;BME280;49026;52.600;4.694;2023-10-08T08:16:04;102652.03;;;15.11;80.77
62725;BME280;49026;52.600;4.694;2023-10-08T08:21:14;102669.38;;;15.21;80.21
62725;BME280;49026;52.600;4.694;2023-10-08T08:23:44;102665.91;;;15.19;79.42
62725;BME280;49026;52.600;4.694;2023-10-08T08:26:29;102672.47;;;15.35;79.26
62725;BME280;49026;52.600;4.694;2023-10-08T08:28:59;102672.97;;;15.47;78.97
62725;BME280;49026;52.600;4.694;2023-10-08T08:31:27;102673.41;;;15.61;77.20
62725;BME280;49026;52.600;4.694;2023-10-08T08:33:56;102662.34;;;15.75;75.20
62725;BME280;49026;52.600;4.694;2023-10-08T08:36:25;102662.09;;;15.84;74.80
62725;BME280;49026;52.600;4.694;2023-10-08T08:38:51;102665.53;;;16.13;77.78
62725;BME280;49026;52.600;4.694;2023-10-08T08:41:17;102670.63;;;16.44;76.60
62725;BME280;49026;52.600;4.694;2023-10-08T08:43:58;102674.56;;;16.58;72.02
62725;BME280;49026;52.600;4.694;2023-10-08T08:46:28;102661.63;;;16.48;74.00
62725;BME280;49026;52.600;4.694;2023-10-08T08:48:55;102668.03;;;16.43;72.20
62725;BME280;49026;52.600;4.694;2023-10-08T08:51:25;102676.38;;;16.57;76.47
62725;BME280;49026;52.600;4.694;2023-10-08T08:53:52;102680.59;;;16.63;72.66
62725;BME280;49026;52.600;4.694;2023-10-08T08:56:17;102682.31;;;16.39;74.49
62725;BME280;49026;52.600;4.694;2023-10-08T08:58:46;102688.56;;;16.38;72.85
62725;BME280;49026;52.600;4.694;2023-10-08T09:01:12;102687.63;;;16.39;73.48
62725;BME280;49026;52.600;4.694;2023-10-08T09:03:39;102682.66;;;16.29;74.97
62725;BME280;49026;52.600;4.694;2023-10-08T09:06:05;102681.34;;;16.16;75.33
62725;BME280;49026;52.600;4.694;2023-10-08T09:08:34;102685.84;;;16.14;74.45
62725;BME280;49026;52.600;4.694;2023-10-08T09:11:00;102689.75;;;16.29;73.89
62725;BME280;49026;52.600;4.694;2023-10-08T09:13:34;102688.50;;;16.64;73.98
62725;BME280;49026;52.600;4.694;2023-10-08T09:16:14;102696.75;;;16.80;69.76
62725;BME280;49026;52.600;4.694;2023-10-08T09:18:43;102696.03;;;17.00;72.82
62725;BME280;49026;52.600;4.694;2023-10-08T09:21:11;102701.31;;;17.48;68.30
62725;BME280;49026;52.600;4.694;2023-10-08T09:23:43;102689.44;;;17.78;66.99
62725;BME280;49026;52.600;4.694;2023-10-08T09:26:10;102688.31;;;18.06;64.19
62725;BME280;49026;52.600;4.694;2023-10-08T09:28:39;102681.13;;;18.29;65.94
62725;BME280;49026;52.600;4.694;2023-10-08T09:31:10;102682.66;;;18.14;62.47
62725;BME280;49026;52.600;4.694;2023-10-08T09:33:36;102679.00;;;18.17;64.35
62725;BME280;49026;52.600;4.694;2023-10-08T09:36:02;102681.72;;;18.15;68.68
62725;BME280;49026;52.600;4.694;2023-10-08T09:38:28;102698.22;;;18.23;66.49
62725;BME280;49026;52.600;4.694;2023-10-08T09:40:55;102697.75;;;17.93;62.10
62725;BME280;49026;52.600;4.694;2023-10-08T09:43:22;102690.56;;;18.15;69.19
62725;BME280;49026;52.600;4.694;2023-10-08T09:45:52;102678.81;;;18.42;60.45
62725;BME280;49026;52.600;4.694;2023-10-08T09:48:20;102685.97;;;18.19;64.07
62725;BME280;49026;52.600;4.694;2023-10-08T09:50:51;102682.72;;;18.12;69.03
62725;BME280;49026;52.600;4.694;2023-10-08T09:53:16;102680.28;;;18.08;62.33
62725;BME280;49026;52.600;4.694;2023-10-08T09:56:03;102680.53;;;18.22;67.39
62725;BME280;49026;52.600;4.694;2023-10-08T09:58:32;102696.41;;;18.03;61.62
62725;BME280;49026;52.600;4.694;2023-10-08T10:00:58;102702.16;;;18.14;68.91
62725;BME280;49026;52.600;4.694;2023-10-08T10:03:26;102712.81;;;18.35;65.07
62725;BME280;49026;52.600;4.694;2023-10-08T10:05:52;102707.59;;;18.73;66.10
62725;BME280;49026;52.600;4.694;2023-10-08T10:08:23;102702.69;;;19.41;58.57
62725;BME280;49026;52.600;4.694;2023-10-08T10:10:58;102697.84;;;19.86;63.06
62725;BME280;49026;52.600;4.694;2023-10-08T10:13:27;102699.13;;;19.96;62.22
62725;BME280;49026;52.600;4.694;2023-10-08T10:15:58;102688.94;;;20.05;60.60
62725;BME280;49026;52.600;4.694;2023-10-08T10:21:00;102669.47;;;20.20;62.26
62725;BME280;49026;52.600;4.694;2023-10-08T10:23:44;102665.53;;;20.27;54.36
62725;BME280;49026;52.600;4.694;2023-10-08T10:26:35;102663.34;;;20.01;54.03
62725;BME280;49026;52.600;4.694;2023-10-08T10:31:42;102684.22;;;19.92;53.55
62725;BME280;49026;52.600;4.694;2023-10-08T10:34:31;102678.41;;;19.84;55.76
62725;BME280;49026;52.600;4.694;2023-10-08T10:37:03;102683.19;;;20.12;62.45
62725;BME280;49026;52.600;4.694;2023-10-08T10:39:34;102681.38;;;19.95;58.84
62725;BME280;49026;52.600;4.694;2023-10-08T10:42:07;102689.88;;;20.04;56.15
62725;BME280;49026;52.600;4.694;2023-10-08T10:44:45;102687.75;;;19.56;61.78
62725;BME280;49026;52.600;4.694;2023-10-08T10:47:15;102688.78;;;18.97;61.20
62725;BME280;49026;52.600;4.694;2023-10-08T10:49:41;102674.53;;;18.58;64.42
62725;BME280;49026;52.600;4.694;2023-10-08T10:52:21;102683.00;;;18.06;60.54
62725;BME280;49026;52.600;4.694;2023-10-08T10:55:06;102687.72;;;18.00;65.76
62725;BME280;49026;52.600;4.694;2023-10-08T10:57:58;102687.72;;;17.77;64.24
62725;BME280;49026;52.600;4.694;2023-10-08T11:00:36;102680.22;;;17.65;63.20
62725;BME280;49026;52.600;4.694;2023-10-08T11:03:03;102685.41;;;17.68;66.43
62725;BME280;49026;52.600;4.694;2023-10-08T11:05:31;102676.88;;;17.82;65.13
62725;BME280;49026;52.600;4.694;2023-10-08T11:08:02;102678.19;;;17.94;66.04
62725;BME280;49026;52.600;4.694;2023-10-08T11:10:38;102678.75;;;18.23;60.82
62725;BME280;49026;52.600;4.694;2023-10-08T11:13:07;102675.81;;;18.29;65.72
62725;BME280;49026;52.600;4.694;2023-10-08T11:15:40;102676.75;;;18.28;61.26
62725;BME280;49026;52.600;4.694;2023-10-08T11:18:14;102670.84;;;18.21;63.33
62725;BME280;49026;52.600;4.694;2023-10-08T11:20:43;102671.00;;;18.58;66.37
62725;BME280;49026;52.600;4.694;2023-10-08T11:23:34;102654.91;;;19.37;56.92
62725;BME280;49026;52.600;4.694;2023-10-08T11:26:01;102658.91;;;19.28;61.95
62725;BME280;49026;52.600;4.694;2023-10-08T11:28:34;102654.41;;;19.29;61.95
62725;BME280;49026;52.600;4.694;2023-10-08T11:31:04;102654.63;;;19.79;63.52
62725;BME280;49026;52.600;4.694;2023-10-08T11:33:44;102641.09;;;20.35;56.98
62725;BME280;49026;52.600;4.694;2023-10-08T11:36:20;102635.63;;;20.21;61.91
62725;BME280;49026;52.600;4.694;2023-10-08T11:38:47;102647.50;;;19.61;59.12
62725;BME280;49026;52.600;4.694;2023-10-08T11:41:16;102636.56;;;18.93;58.13
62725;BME280;49026;52.600;4.694;2023-10-08T11:46:13;102615.09;;;19.34;57.25
62725;BME280;49026;52.600;4.694;2023-10-08T11:48:43;102607.16;;;19.86;59.58
62725;BME280;49026;52.600;4.694;2023-10-08T11:51:12;102611.47;;;20.40;57.30
62725;BME280;49026;52.600;4.694;2023-10-08T11:53:40;102604.63;;;20.01;55.50
62725;BME280;49026;52.600;4.694;2023-10-08T11:56:05;102598.59;;;19.79;60.68
62725;BME280;49026;52.600;4.694;2023-10-08T11:58:39;102592.91;;;19.33;58.11
62725;BME280;49026;52.600;4.694;2023-10-08T12:01:04;102600.38;;;19.61;60.02
62725;BME280;49026;52.600;4.694;2023-10-08T12:03:29;102591.06;;;19.88;59.67
62725;BME280;49026;52.600;4.694;2023-10-08T12:05:58;102582.97;;;20.07;56.46
62725;BME280;49026;52.600;4.694;2023-10-08T12:08:26;102578.56;;;20.39;57.94
62725;BME280;49026;52.600;4.694;2023-10-08T12:10:53;102580.81;;;20.96;60.42
62725;BME280;49026;52.600;4.694;2023-10-08T12:13:25;102574.47;;;21.29;58.70
62725;BME280;49026;52.600;4.694;2023-10-08T12:15:54;102573.03;;;21.07;56.13
62725;BME280;49026;52.600;4.694;2023-10-08T12:18:39;102567.53;;;20.95;58.67
62725;BME280;49026;52.600;4.694;2023-10-08T12:21:07;102564.59;;;21.15;56.36
62725;BME280;49026;52.600;4.694;2023-10-08T12:23:37;102560.16;;;21.30;57.82
62725;BME280;49026;52.600;4.694;2023-10-08T12:26:06;102547.97;;;20.94;57.67
62725;BME280;49026;52.600;4.694;2023-10-08T12:28:37;102552.50;;;20.60;59.48
62725;BME280;49026;52.600;4.694;2023-10-08T12:31:03;102556.38;;;20.39;58.16
62725;BME280;49026;52.600;4.694;2023-10-08T12:33:29;102561.56;;;20.24;56.65
62725;BME280;49026;52.600;4.694;2023-10-08T12:35:55;102568.22;;;20.33;60.53
62725;BME280;49026;52.600;4.694;2023-10-08T12:38:24;102558.97;;;20.56;57.63
62725;BME280;49026;52.600;4.694;2023-10-08T12:40:55;102558.16;;;20.71;57.51
62725;BME280;49026;52.600;4.694;2023-10-08T12:43:21;102557.50;;;20.50;59.60
62725;BME280;49026;52.600;4.694;2023-10-08T12:45:48;102569.81;;;20.20;59.98
62725;BME280;49026;52.600;4.694;2023-10-08T12:48:26;102567.34;;;20.16;61.53
62725;BME280;49026;52.600;4.694;2023-10-08T12:50:53;102569.75;;;20.86;58.93
62725;BME280;49026;52.600;4.694;2023-10-08T12:53:25;102566.53;;;21.43;59.64
62725;BME280;49026;52.600;4.694;2023-10-08T12:56:00;102570.44;;;21.22;59.40
62725;BME280;49026;52.600;4.694;2023-10-08T12:58:32;102570.88;;;21.30;60.60
62725;BME280;49026;52.600;4.694;2023-10-08T13:01:04;102575.84;;;21.97;59.50
62725;BME280;49026;52.600;4.694;2023-10-08T13:03:34;102583.53;;;22.46;57.75
62725;BME280;49026;52.600;4.694;2023-10-08T13:06:06;102586.63;;;22.10;57.70
62725;BME280;49026;52.600;4.694;2023-10-08T13:08:32;102582.34;;;21.46;55.86
62725;BME280;49026;52.600;4.694;2023-10-08T13:11:00;102576.94;;;20.70;57.30
62725;BME280;49026;52.600;4.694;2023-10-08T13:13:32;102573.22;;;20.23;60.81
62725;BME280;49026;52.600;4.694;2023-10-08T13:15:58;102578.75;;;19.85;62.41
62725;BME280;49026;52.600;4.694;2023-10-08T13:18:27;102577.00;;;19.67;60.53
62725;BME280;49026;52.600;4.694;2023-10-08T13:20:53;102574.81;;;19.57;63.22
62725;BME280;49026;52.600;4.694;2023-10-08T13:23:19;102573.69;;;19.27;63.71
62725;BME280;49026;52.600;4.694;2023-10-08T13:25:50;102564.31;;;18.81;62.04